createdAt,value
2022-10-09T00:01:26.325Z,99.90
2022-10-09T00:03:56.451Z,99.90
2022-10-09T00:06:32.206Z,99.90
2022-10-09T00:09:01.811Z,99.90
2022-10-09T00:11:30.794Z,99.90
2022-10-09T00:13:58.071Z,99.90
2022-10-09T00:16:26.739Z,99.90
2022-10-09T00:18:54.461Z,99.90
2022-10-09T00:21:29.748Z,99.90
2022-10-09T00:23:59.805Z,99.90
2022-10-09T00:26:28.098Z,99.90
2022-10-09T00:28:55.539Z,99.90
2022-10-09T00:31:42.222Z,99.90
2022-10-09T00:34:08.915Z,99.90
2022-10-09T00:36:35.631Z,99.90
2022-10-09T00:39:02.590Z,99.90
2022-10-09T00:41:31.381Z,99.90
2022-10-09T00:44:02.336Z,99.90
2022-10-09T00:46:51.267Z,99.90
2022-10-09T00:49:34.460Z,99.90
2022-10-09T00:52:07.401Z,99.90
2022-10-09T00:54:39.345Z,99.90
2022-10-09T00:57:06.981Z,99.90
2022-10-09T00:59:34.953Z,99.90
2022-10-09T01:02:01.879Z,99.90
2022-10-09T01:04:28.679Z,99.90
2022-10-09T01:07:16.697Z,99.90
2022-10-09T01:10:06.940Z,99.90
2022-10-09T01:13:14.492Z,99.90
2022-10-09T01:16:17.414Z,99.90
2022-10-09T01:19:25.990Z,99.90
2022-10-09T01:22:30.361Z,99.90
2022-10-09T01:25:07.434Z,99.90
2022-10-09T01:27:37.707Z,99.90
2022-10-09T01:30:11.618Z,99.90
2022-10-09T01:32:48.472Z,99.90
2022-10-09T01:35:16.799Z,99.90
2022-10-09T01:37:47.027Z,99.90
2022-10-09T01:40:17.472Z,99.90
2022-10-09T01:42:47.010Z,99.90
2022-10-09T01:45:15.635Z,99.90
2022-10-09T01:47:43.206Z,99.90
2022-10-09T01:50:29.102Z,99.90
2022-10-09T01:53:08.617Z,99.90
2022-10-09T01:55:56.372Z,99.90
2022-10-09T01:58:48.657Z,99.90
2022-10-09T02:01:24.497Z,99.90
2022-10-09T02:03:54.354Z,99.90
2022-10-09T02:06:21.673Z,99.90
2022-10-09T02:08:53.008Z,99.90
2022-10-09T02:11:19.778Z,99.90
2022-10-09T02:13:52.847Z,99.90
2022-10-09T02:16:46.946Z,99.90
2022-10-09T02:19:40.901Z,99.90
2022-10-09T02:22:14.774Z,99.90
2022-10-09T02:24:42.671Z,99.90
2022-10-09T02:27:12.612Z,99.90
2022-10-09T02:29:43.044Z,99.90
2022-10-09T02:32:10.961Z,99.90
2022-10-09T02:34:37.881Z,99.90
2022-10-09T02:37:05.653Z,99.90
2022-10-09T02:39:32.487Z,99.90
2022-10-09T02:41:59.163Z,99.90
2022-10-09T02:44:26.024Z,99.90
2022-10-09T02:46:53.336Z,99.90
2022-10-09T02:49:20.162Z,99.90
2022-10-09T02:51:46.874Z,99.90
2022-10-09T02:54:13.797Z,99.90
2022-10-09T02:56:40.511Z,99.90
2022-10-09T02:59:07.429Z,99.90
2022-10-09T03:01:34.461Z,99.90
2022-10-09T03:04:01.377Z,99.90
2022-10-09T03:08:56.424Z,99.90
2022-10-09T03:11:27.135Z,99.90
2022-10-09T03:13:54.439Z,99.90
2022-10-09T03:16:24.879Z,99.90
2022-10-09T03:18:53.487Z,99.90
2022-10-09T03:21:23.874Z,99.90
2022-10-09T03:23:52.253Z,99.90
2022-10-09T03:26:25.263Z,99.90
2022-10-09T03:28:54.114Z,99.90
2022-10-09T03:31:51.966Z,99.90
2022-10-09T03:34:12.492Z,99.90
2022-10-09T03:36:39.660Z,99.90
2022-10-09T03:39:06.391Z,99.90
2022-10-09T03:41:33.114Z,99.90
2022-10-09T03:43:59.825Z,99.90
2022-10-09T03:46:26.693Z,99.90
2022-10-09T03:48:53.554Z,99.90
2022-10-09T03:51:20.241Z,99.90
2022-10-09T03:53:46.949Z,99.90
2022-10-09T03:56:13.643Z,99.90
2022-10-09T03:58:40.346Z,99.90
2022-10-09T04:01:07.108Z,99.90
2022-10-09T04:03:33.853Z,99.90
2022-10-09T04:06:00.588Z,99.90
2022-10-09T04:08:27.599Z,99.90
2022-10-09T04:10:59.557Z,99.90
2022-10-09T04:13:26.683Z,99.90
2022-10-09T04:15:54.547Z,99.90
2022-10-09T04:18:21.707Z,99.90
2022-10-09T04:20:54.489Z,99.90
2022-10-09T04:23:26.356Z,99.90
2022-10-09T04:25:55.381Z,99.90
2022-10-09T04:28:25.538Z,99.90
2022-10-09T04:30:52.750Z,99.90
2022-10-09T04:33:20.209Z,99.90
2022-10-09T04:35:52.403Z,99.90
2022-10-09T04:38:20.493Z,99.90
2022-10-09T04:41:03.897Z,99.90
2022-10-09T04:43:32.531Z,99.90
2022-10-09T04:45:59.340Z,99.90
2022-10-09T04:48:26.181Z,99.90
2022-10-09T04:50:52.930Z,99.90
2022-10-09T04:53:19.795Z,99.90
2022-10-09T04:55:46.656Z,99.90
2022-10-09T04:58:14.221Z,99.90
2022-10-09T05:00:46.323Z,99.90
2022-10-09T05:03:13.382Z,99.90
2022-10-09T05:05:40.155Z,99.90
2022-10-09T05:08:06.885Z,99.90
2022-10-09T05:10:33.721Z,99.90
2022-10-09T05:13:00.479Z,99.90
2022-10-09T05:15:27.620Z,99.90
2022-10-09T05:17:54.476Z,99.90
2022-10-09T05:20:21.306Z,99.90
2022-10-09T05:22:48.578Z,99.90
2022-10-09T05:25:15.622Z,99.90
2022-10-09T05:27:42.319Z,99.90
2022-10-09T05:30:10.079Z,99.90
2022-10-09T05:32:36.878Z,99.90
2022-10-09T05:35:04.344Z,99.90
2022-10-09T05:37:31.278Z,99.90
2022-10-09T05:39:57.978Z,99.90
2022-10-09T05:42:24.718Z,99.90
2022-10-09T05:44:51.452Z,99.90
2022-10-09T05:47:19.598Z,99.90
2022-10-09T05:49:46.858Z,99.90
2022-10-09T05:52:13.726Z,99.90
2022-10-09T05:54:41.819Z,99.90
2022-10-09T05:57:09.690Z,99.90
2022-10-09T05:59:36.409Z,99.90
2022-10-09T06:02:03.720Z,99.90
2022-10-09T06:04:30.531Z,99.90
2022-10-09T06:06:57.289Z,99.90
2022-10-09T06:09:25.591Z,99.90
2022-10-09T06:11:54.580Z,99.90
2022-10-09T06:14:22.151Z,99.90
2022-10-09T06:16:49.671Z,99.90
2022-10-09T06:19:19.314Z,99.90
2022-10-09T06:21:47.043Z,99.90
2022-10-09T06:24:28.306Z,99.90
2022-10-09T06:26:56.912Z,99.90
2022-10-09T06:29:23.893Z,99.90
2022-10-09T06:31:50.579Z,99.90
2022-10-09T06:34:17.448Z,99.90
2022-10-09T06:36:44.197Z,99.90
2022-10-09T06:39:11.236Z,99.90
2022-10-09T06:41:38.152Z,99.90
2022-10-09T06:44:10.813Z,99.90
2022-10-09T06:46:41.969Z,99.90
2022-10-09T06:49:10.732Z,99.90
2022-10-09T06:51:38.469Z,99.90
2022-10-09T06:54:11.802Z,99.90
2022-10-09T06:56:38.718Z,99.90
2022-10-09T06:59:07.519Z,99.90
2022-10-09T07:01:34.577Z,99.90
2022-10-09T07:04:08.955Z,99.90
2022-10-09T07:06:40.146Z,99.90
2022-10-09T07:09:11.311Z,99.90
2022-10-09T07:11:44.793Z,99.90
2022-10-09T07:14:14.068Z,99.90
2022-10-09T07:16:45.123Z,99.90
2022-10-09T07:19:13.974Z,99.90
2022-10-09T07:21:44.555Z,99.90
2022-10-09T07:24:12.512Z,99.90
2022-10-09T07:26:44.672Z,99.90
2022-10-09T07:29:15.434Z,99.90
2022-10-09T07:31:42.315Z,99.90
2022-10-09T07:34:09.066Z,99.90
2022-10-09T07:36:36.038Z,99.90
2022-10-09T07:39:04.694Z,99.90
2022-10-09T07:41:31.859Z,99.90
2022-10-09T07:43:58.949Z,97.80
2022-10-09T07:46:33.298Z,96.90
2022-10-09T07:49:00.866Z,96.50
2022-10-09T07:51:29.618Z,95.90
2022-10-09T07:53:57.252Z,96.50
2022-10-09T07:56:37.750Z,97.40
2022-10-09T07:59:11.769Z,99.10
2022-10-09T08:01:39.274Z,99.90
2022-10-09T08:04:06.877Z,99.90
2022-10-09T08:06:34.479Z,99.90
2022-10-09T08:09:04.390Z,99.90
2022-10-09T08:11:31.796Z,99.90
2022-10-09T08:13:58.682Z,99.90
2022-10-09T08:16:27.398Z,99.90
2022-10-09T08:18:59.688Z,99.90
2022-10-09T08:21:28.458Z,99.90
2022-10-09T08:23:58.282Z,99.90
2022-10-09T08:26:28.258Z,99.90
2022-10-09T08:29:05.706Z,99.90
2022-10-09T08:31:32.960Z,99.90
2022-10-09T08:34:02.584Z,99.90
2022-10-09T08:36:30.274Z,99.90
2022-10-09T08:38:57.081Z,99.90
2022-10-09T08:41:32.597Z,97.60
2022-10-09T08:44:13.609Z,97.80
2022-10-09T08:46:49.452Z,97.40
2022-10-09T08:49:41.798Z,97.00
2022-10-09T08:52:52.753Z,95.90
2022-10-09T08:55:35.671Z,94.80
2022-10-09T08:58:05.309Z,93.20
2022-10-09T09:00:53.231Z,91.30
2022-10-09T09:03:46.618Z,91.30
2022-10-09T09:06:53.941Z,91.40
2022-10-09T09:09:38.485Z,90.40
2022-10-09T09:12:29.689Z,87.80
2022-10-09T09:15:18.447Z,78.90
2022-10-09T09:18:32.800Z,77.90
2022-10-09T09:21:09.714Z,75.10
2022-10-09T09:23:46.244Z,77.00
2022-10-09T09:26:17.947Z,75.90
2022-10-09T09:28:48.736Z,74.10
2022-10-09T09:31:29.480Z,72.90
2022-10-09T09:34:10.916Z,71.80
2022-10-09T09:36:51.608Z,70.10
2022-10-09T09:42:19.958Z,69.50
2022-10-09T09:44:59.348Z,70.30
2022-10-09T09:47:44.214Z,66.20
2022-10-09T09:50:28.600Z,66.10
2022-10-09T09:53:04.980Z,66.50
2022-10-09T09:55:34.221Z,65.90
2022-10-09T09:58:06.566Z,64.10
2022-10-09T10:00:34.757Z,64.70
2022-10-09T10:03:15.685Z,64.20
2022-10-09T10:05:44.766Z,63.80
2022-10-09T10:08:34.122Z,61.40
2022-10-09T10:11:06.172Z,61.10
2022-10-09T10:13:45.840Z,60.60
2022-10-09T10:16:38.030Z,60.40
2022-10-09T10:19:06.405Z,59.10
2022-10-09T10:21:49.343Z,59.30
2022-10-09T10:24:27.604Z,56.30
2022-10-09T10:27:07.318Z,56.40
2022-10-09T10:29:41.344Z,56.20
2022-10-09T10:32:38.499Z,55.60
2022-10-09T10:35:26.119Z,56.30
2022-10-09T10:38:06.690Z,54.80
2022-10-09T10:40:41.846Z,53.70
2022-10-09T10:43:14.949Z,53.40
2022-10-09T10:46:04.357Z,51.60
2022-10-09T10:48:52.651Z,51.00
2022-10-09T10:51:44.771Z,51.20
2022-10-09T10:54:44.714Z,51.40
2022-10-09T10:57:26.030Z,51.70
2022-10-09T11:00:06.680Z,50.50
2022-10-09T11:02:49.029Z,50.30
2022-10-09T11:05:22.703Z,51.50
2022-10-09T11:08:21.674Z,48.00
2022-10-09T11:11:27.919Z,50.00
2022-10-09T11:14:47.480Z,48.90
2022-10-09T11:17:16.928Z,47.70
2022-10-09T11:20:03.579Z,48.10
2022-10-09T11:22:49.908Z,47.80
2022-10-09T11:25:51.479Z,47.80
2022-10-09T11:28:45.690Z,48.20
2022-10-09T11:31:44.969Z,47.10
2022-10-09T11:34:32.206Z,48.50
2022-10-09T11:37:02.382Z,47.00
2022-10-09T11:39:32.459Z,46.80
2022-10-09T11:42:00.439Z,48.40
2022-10-09T11:44:49.398Z,48.10
2022-10-09T11:48:00.646Z,48.00
2022-10-09T11:50:48.195Z,47.20
2022-10-09T11:53:19.556Z,45.60
2022-10-09T11:55:48.161Z,46.00
2022-10-09T11:58:25.089Z,47.50
2022-10-09T12:00:56.495Z,48.50
2022-10-09T12:03:34.547Z,48.00
2022-10-09T12:06:09.394Z,47.70
2022-10-09T12:08:38.814Z,45.00
2022-10-09T12:11:19.808Z,45.30
2022-10-09T12:13:52.245Z,45.30
2022-10-09T12:16:45.273Z,45.90
2022-10-09T12:19:24.817Z,43.60
2022-10-09T12:22:02.322Z,44.20
2022-10-09T12:25:02.237Z,44.30
2022-10-09T12:27:36.467Z,44.40
2022-10-09T12:30:12.816Z,44.90
2022-10-09T12:32:56.738Z,45.60
2022-10-09T12:35:32.881Z,44.10
2022-10-09T12:37:59.634Z,43.70
2022-10-09T12:40:31.331Z,41.80
2022-10-09T12:43:06.023Z,41.90
2022-10-09T12:45:33.712Z,40.80
2022-10-09T12:48:12.112Z,40.70
2022-10-09T12:50:39.777Z,39.30
2022-10-09T12:53:32.064Z,40.40
2022-10-09T12:56:00.825Z,39.40
2022-10-09T12:58:38.765Z,40.90
2022-10-09T13:01:13.488Z,39.70
2022-10-09T13:04:03.299Z,40.30
2022-10-09T13:06:48.570Z,41.70
2022-10-09T13:09:22.115Z,41.40
2022-10-09T13:12:05.941Z,39.30
2022-10-09T13:14:43.702Z,39.70
2022-10-09T13:17:25.543Z,39.70
2022-10-09T13:19:55.498Z,39.20
2022-10-09T13:22:31.013Z,39.60
2022-10-09T13:24:59.390Z,41.30
2022-10-09T13:27:32.149Z,39.60
2022-10-09T13:30:00.490Z,39.00
2022-10-09T13:32:27.910Z,38.60
2022-10-09T13:34:55.152Z,40.60
2022-10-09T13:37:24.158Z,39.60
2022-10-09T13:39:57.002Z,39.40
2022-10-09T13:42:30.049Z,38.80
2022-10-09T13:44:57.291Z,39.00
2022-10-09T13:47:24.910Z,39.10
2022-10-09T13:49:51.943Z,38.80
2022-10-09T13:52:18.854Z,36.30
2022-10-09T13:54:45.594Z,32.80
2022-10-09T13:57:12.334Z,29.60
2022-10-09T13:59:39.363Z,27.70
2022-10-09T14:02:06.125Z,25.40
2022-10-09T14:04:32.957Z,24.70
2022-10-09T14:06:59.670Z,22.90
2022-10-09T14:09:26.706Z,23.00
2022-10-09T14:11:53.479Z,21.60
2022-10-09T14:14:22.212Z,21.00
2022-10-09T14:16:50.542Z,20.30
2022-10-09T14:19:17.969Z,19.10
2022-10-09T14:21:46.659Z,18.70
2022-10-09T14:24:14.333Z,19.20
2022-10-09T14:26:41.179Z,20.90
2022-10-09T14:29:09.658Z,22.20
2022-10-09T14:31:36.449Z,23.20
2022-10-09T14:34:03.192Z,24.70
2022-10-09T14:36:30.089Z,25.80
2022-10-09T14:39:00.758Z,27.70
2022-10-09T14:41:28.534Z,29.20
2022-10-09T14:43:59.276Z,30.60
2022-10-09T14:46:28.629Z,31.90
2022-10-09T14:48:57.691Z,32.40
2022-10-09T14:51:27.065Z,33.20
2022-10-09T14:53:58.288Z,34.20
2022-10-09T14:56:27.233Z,34.70
2022-10-09T14:58:54.322Z,34.60
2022-10-09T15:01:22.661Z,35.40
2022-10-09T15:03:49.548Z,35.80
2022-10-09T15:06:19.989Z,36.30
2022-10-09T15:08:46.692Z,37.80
2022-10-09T15:11:13.405Z,39.10
2022-10-09T15:13:40.535Z,39.90
2022-10-09T15:16:12.727Z,41.60
2022-10-09T15:18:40.066Z,42.10
2022-10-09T15:21:18.666Z,42.20
2022-10-09T15:23:46.476Z,43.00
2022-10-09T15:26:14.590Z,44.20
2022-10-09T15:28:43.449Z,45.10
2022-10-09T15:31:17.063Z,45.50
2022-10-09T15:33:43.746Z,46.10
2022-10-09T15:36:10.555Z,46.60
2022-10-09T15:38:37.355Z,47.20
2022-10-09T15:41:04.143Z,48.00
2022-10-09T15:43:37.521Z,48.60
2022-10-09T15:46:05.913Z,49.30
2022-10-09T15:48:32.611Z,50.60
2022-10-09T15:51:06.800Z,51.80
2022-10-09T15:53:33.542Z,52.60
2022-10-09T15:56:06.165Z,53.20
2022-10-09T15:58:33.096Z,53.70
2022-10-09T16:01:12.273Z,54.20
2022-10-09T16:03:39.703Z,54.90
2022-10-09T16:06:11.884Z,55.60
2022-10-09T16:08:39.324Z,55.90
2022-10-09T16:11:10.065Z,56.50
2022-10-09T16:13:39.737Z,57.40
2022-10-09T16:16:16.499Z,58.30
2022-10-09T16:18:43.684Z,59.10
2022-10-09T16:21:16.142Z,60.00
2022-10-09T16:23:44.065Z,61.30
2022-10-09T16:26:14.383Z,62.70
2022-10-09T16:28:41.161Z,64.50
2022-10-09T16:31:07.939Z,66.30
2022-10-09T16:33:35.038Z,67.60
2022-10-09T16:36:12.787Z,68.70
2022-10-09T16:38:40.544Z,69.70
2022-10-09T16:41:12.330Z,70.90
2022-10-09T16:43:39.501Z,72.30
2022-10-09T16:46:28.302Z,73.80
2022-10-09T16:48:56.992Z,76.00
2022-10-09T16:51:31.358Z,78.20
2022-10-09T16:54:03.183Z,80.40
2022-10-09T16:56:34.648Z,82.90
2022-10-09T16:59:06.603Z,84.70
2022-10-09T17:01:38.030Z,86.70
2022-10-09T17:04:04.905Z,88.50
2022-10-09T17:06:31.900Z,90.10
2022-10-09T17:08:59.835Z,91.00
2022-10-09T17:11:29.699Z,91.80
2022-10-09T17:13:57.193Z,92.70
2022-10-09T17:16:30.084Z,93.30
2022-10-09T17:18:57.863Z,94.20
2022-10-09T17:21:27.825Z,94.80
2022-10-09T17:24:01.690Z,95.60
2022-10-09T17:26:29.327Z,96.40
2022-10-09T17:28:59.074Z,97.40
2022-10-09T17:31:26.831Z,98.50
2022-10-09T17:33:57.827Z,99.00
2022-10-09T17:36:28.730Z,99.80
2022-10-09T17:38:55.698Z,99.90
2022-10-09T17:41:25.574Z,99.90
2022-10-09T17:43:54.923Z,99.90
2022-10-09T17:46:23.670Z,99.90
2022-10-09T17:48:53.580Z,99.90
2022-10-09T17:51:42.143Z,99.90
2022-10-09T17:54:17.133Z,99.90
2022-10-09T17:56:44.377Z,99.90
2022-10-09T17:59:11.294Z,99.90
2022-10-09T18:01:39.243Z,99.90
2022-10-09T18:04:06.061Z,99.90
2022-10-09T18:06:34.701Z,99.90
2022-10-09T18:09:02.144Z,99.90
2022-10-09T18:11:29.898Z,99.90
2022-10-09T18:13:57.010Z,99.90
2022-10-09T18:16:35.318Z,99.90
2022-10-09T18:19:18.196Z,99.90
2022-10-09T18:21:48.419Z,99.90
2022-10-09T18:24:15.289Z,99.90
2022-10-09T18:26:43.176Z,99.90
2022-10-09T18:29:10.514Z,99.90
2022-10-09T18:31:38.407Z,99.90
2022-10-09T18:34:05.390Z,99.90
2022-10-09T18:36:34.014Z,99.90
2022-10-09T18:39:07.517Z,99.90
2022-10-09T18:41:36.607Z,99.90
2022-10-09T18:44:05.237Z,99.90
2022-10-09T18:46:39.725Z,99.90
2022-10-09T18:49:11.674Z,99.90
2022-10-09T18:51:42.087Z,99.90
2022-10-09T18:54:13.240Z,99.90
2022-10-09T18:56:43.007Z,99.90
2022-10-09T18:59:14.913Z,99.90
2022-10-09T19:01:41.747Z,99.90
2022-10-09T19:04:08.524Z,99.90
2022-10-09T19:06:35.727Z,99.90
2022-10-09T19:09:02.784Z,99.90
2022-10-09T19:11:32.719Z,99.90
2022-10-09T19:14:00.842Z,99.90
2022-10-09T19:16:33.262Z,99.90
2022-10-09T19:19:00.265Z,99.90
2022-10-09T19:21:27.343Z,99.90
2022-10-09T19:23:54.545Z,99.90
2022-10-09T19:26:23.019Z,99.90
2022-10-09T19:28:49.833Z,99.90
2022-10-09T19:31:16.869Z,99.90
2022-10-09T19:33:43.698Z,99.90
2022-10-09T19:36:13.025Z,99.90
2022-10-09T19:38:41.160Z,99.90
2022-10-09T19:41:15.413Z,99.90
2022-10-09T19:43:42.754Z,99.90
2022-10-09T19:46:20.691Z,99.90
2022-10-09T19:48:47.468Z,99.90
2022-10-09T19:51:21.474Z,99.90
2022-10-09T19:53:49.897Z,99.90
2022-10-09T19:56:27.417Z,99.90
2022-10-09T19:58:56.306Z,99.90
2022-10-09T20:01:26.811Z,99.90
2022-10-09T20:04:05.386Z,99.90
2022-10-09T20:06:32.297Z,99.90
2022-10-09T20:08:59.038Z,99.90
2022-10-09T20:11:26.819Z,99.90
2022-10-09T20:13:56.158Z,99.90
2022-10-09T20:16:24.845Z,99.90
2022-10-09T20:18:51.684Z,99.90
2022-10-09T20:21:18.907Z,99.90
2022-10-09T20:23:45.917Z,99.90
2022-10-09T20:26:19.540Z,99.90
2022-10-09T20:28:48.157Z,99.90
2022-10-09T20:31:19.432Z,99.90
2022-10-09T20:33:47.973Z,99.90
2022-10-09T20:36:33.355Z,99.90
2022-10-09T20:39:04.474Z,99.90
2022-10-09T20:41:32.591Z,99.90
2022-10-09T20:44:02.759Z,99.90
2022-10-09T20:46:33.359Z,99.90
2022-10-09T20:49:04.934Z,99.90
2022-10-09T20:51:34.746Z,99.90
2022-10-09T20:54:02.327Z,99.90
2022-10-09T20:56:31.838Z,99.90
2022-10-09T20:58:59.739Z,99.90
2022-10-09T21:01:28.119Z,99.90
2022-10-09T21:03:59.215Z,99.90
2022-10-09T21:06:26.424Z,99.90
2022-10-09T21:08:53.274Z,99.90
2022-10-09T21:11:20.331Z,99.90
2022-10-09T21:13:48.675Z,99.90
2022-10-09T21:16:22.754Z,99.90
2022-10-09T21:18:59.844Z,99.90
2022-10-09T21:21:28.530Z,99.90
2022-10-09T21:23:58.829Z,99.90
2022-10-09T21:26:27.344Z,99.90
2022-10-09T21:28:59.005Z,99.90
2022-10-09T21:31:29.508Z,99.90
2022-10-09T21:33:57.967Z,99.90
2022-10-09T21:37:01.799Z,99.90
2022-10-09T21:39:29.891Z,99.90
2022-10-09T21:41:56.657Z,99.90
2022-10-09T21:44:23.362Z,99.90
2022-10-09T21:46:50.160Z,99.90
2022-10-09T21:49:25.698Z,99.90
2022-10-09T21:51:53.038Z,99.90
2022-10-09T21:54:20.841Z,99.90
2022-10-09T21:56:47.644Z,99.90
2022-10-09T21:59:14.339Z,99.90
2022-10-09T22:01:41.083Z,99.90
2022-10-09T22:04:07.918Z,99.90
2022-10-09T22:06:34.626Z,99.90
2022-10-09T22:09:01.360Z,99.90
2022-10-09T22:11:28.191Z,99.90
2022-10-09T22:13:56.015Z,99.90
2022-10-09T22:16:23.057Z,99.90
2022-10-09T22:18:49.744Z,99.90
2022-10-09T22:21:18.197Z,99.90
2022-10-09T22:23:45.200Z,99.90
2022-10-09T22:26:16.881Z,99.90
2022-10-09T22:28:45.801Z,99.90
2022-10-09T22:31:23.459Z,99.90
2022-10-09T22:33:59.328Z,99.90
2022-10-09T22:36:31.107Z,99.90
2022-10-09T22:39:02.293Z,99.90
2022-10-09T22:41:30.652Z,99.90
2022-10-09T22:43:59.576Z,99.90
2022-10-09T22:46:37.027Z,99.90
2022-10-09T22:49:04.578Z,99.90
2022-10-09T22:51:31.567Z,99.90
2022-10-09T22:53:59.573Z,99.90
2022-10-09T22:56:31.747Z,99.90
2022-10-09T22:58:59.060Z,99.90
2022-10-09T23:01:31.041Z,99.90
2022-10-09T23:04:05.132Z,99.90
2022-10-09T23:06:32.790Z,99.90
2022-10-09T23:09:00.199Z,99.90
2022-10-09T23:11:27.684Z,99.90
2022-10-09T23:13:57.718Z,99.90
2022-10-09T23:16:26.167Z,99.90
2022-10-09T23:18:53.123Z,99.90
2022-10-09T23:21:22.884Z,99.90
2022-10-09T23:23:50.835Z,99.90
2022-10-09T23:26:21.878Z,99.90
2022-10-09T23:28:59.650Z,99.90
2022-10-09T23:31:28.368Z,99.90
2022-10-09T23:33:56.688Z,99.90
2022-10-09T23:36:27.521Z,99.90
2022-10-09T23:38:55.414Z,99.90
2022-10-09T23:41:25.246Z,99.90
2022-10-09T23:43:52.498Z,99.90
2022-10-09T23:46:27.692Z,99.90
2022-10-09T23:48:55.608Z,99.90
2022-10-09T23:51:24.781Z,99.90
2022-10-09T23:53:52.070Z,99.90
2022-10-09T23:56:29.686Z,99.90
2022-10-09T23:58:59.092Z,99.90
